Terminal Aerodrome Forecast
Issued by NWS Charleston, WV

Current Version | Previous Version | Text Only | Print | Product List | Glossary Off
Versions: 1 2 3 4 5 6 7 8 9 10 11 12 13 14 15 16 17

000
FTUS41 KRLX 172300
TAFHTS
TAF
KHTS 172325Z 1800/1824 00000KT P6SM SKC
     FM181400 00000KT P6SM SCT050
     FM181700 23005KT P6SM SCT150
     FM182200 29004KT P6SM BKN050=

USA.gov is the U.S. government's official web portal to all federal, state and local government web resources and services.